Time;durP1;ratioP1;P1;durP2;ratioP2;P2;SDS_P1;SDS_P2;PMS_P1;PMS_P2;Temp;Humidity;BMP_temperature;BMP_pressure;BME280_temperature;BME280_humidity;BME280_pressure;Samples;Min_cycle;Max_cycle;Signal;HPM_P1;HPM_P2
2023/08/15 00:02:10;;;;;;;6.93;4.40;;;;;;;26.39;52.66;100590.81;4881041;29;20476;-74
2023/08/15 00:04:39;;;;;;;6.03;4.60;;;;;;;26.37;52.61;100584.66;4880768;29;20057;-74
2023/08/15 00:07:07;;;;;;;7.97;4.40;;;;;;;26.37;53.09;100595.59;4881150;29;20482;-75
2023/08/15 00:09:35;;;;;;;6.68;4.47;;;;;;;26.36;53.10;100588.44;4881079;29;20053;-74
2023/08/15 00:12:05;;;;;;;6.95;4.57;;;;;;;26.35;53.19;100589.47;4881096;29;20087;-74
2023/08/15 00:14:34;;;;;;;7.43;3.92;;;;;;;26.32;52.90;100587.09;4880963;29;20045;-74
2023/08/15 00:17:02;;;;;;;6.38;4.20;;;;;;;26.31;52.92;100585.38;4880839;29;20124;-74
2023/08/15 00:19:30;;;;;;;6.28;4.03;;;;;;;26.31;52.73;100590.88;4880750;29;20052;-74
2023/08/15 00:21:58;;;;;;;8.10;4.00;;;;;;;26.27;52.95;100578.63;4880703;29;20140;-74
2023/08/15 00:24:26;;;;;;;6.50;4.25;;;;;;;26.25;53.14;100582.38;4880758;29;20053;-73
2023/08/15 00:26:55;;;;;;;7.05;4.05;;;;;;;26.25;52.89;100581.53;4880686;29;20121;-74
2023/08/15 00:29:27;;;;;;;6.43;4.43;;;;;;;26.24;53.27;100572.44;4880583;29;20063;-73
2023/08/15 00:31:55;;;;;;;6.07;4.00;;;;;;;26.23;53.37;100572.66;4880421;29;20494;-73
2023/08/15 00:34:23;;;;;;;6.32;4.20;;;;;;;26.21;52.96;100581.03;4880510;29;20559;-73
2023/08/15 00:36:51;;;;;;;6.57;4.25;;;;;;;26.20;52.99;100573.03;4880630;29;20056;-73
2023/08/15 00:39:19;;;;;;;7.65;4.25;;;;;;;26.19;53.50;100566.72;4880379;29;20566;-73
2023/08/15 00:41:48;;;;;;;5.75;4.10;;;;;;;26.18;53.16;100570.50;4880431;29;20092;-73
2023/08/15 00:44:16;;;;;;;6.07;4.15;;;;;;;26.14;53.15;100569.13;4880170;29;20089;-73
2023/08/15 00:46:45;;;;;;;5.88;4.03;;;;;;;26.14;53.27;100577.34;4880203;29;20479;-74
2023/08/15 00:49:14;;;;;;;6.40;4.70;;;;;;;26.13;53.37;100567.44;4880172;29;20088;-74
2023/08/15 00:51:42;;;;;;;7.45;4.60;;;;;;;26.13;53.58;100574.78;4880300;29;20415;-74
2023/08/15 00:54:10;;;;;;;7.78;4.40;;;;;;;26.10;53.29;100578.75;4880281;29;20120;-74
2023/08/15 00:56:39;;;;;;;5.97;4.38;;;;;;;26.11;53.69;100569.53;4880106;29;20053;-74
2023/08/15 00:59:07;;;;;;;6.90;4.07;;;;;;;26.05;53.42;100570.25;4879983;29;20064;-74
2023/08/15 01:01:37;;;;;;;5.45;4.30;;;;;;;26.06;53.81;100571.13;4879581;29;20057;-73
2023/08/15 01:04:07;;;;;;;4.93;4.00;;;;;;;26.05;53.69;100567.50;4880068;29;20049;-74
2023/08/15 01:06:35;;;;;;;6.45;4.45;;;;;;;26.04;53.90;100574.03;4880094;29;20053;-73
2023/08/15 01:09:05;;;;;;;6.60;4.20;;;;;;;26.03;53.48;100572.31;4879677;29;20140;-74
2023/08/15 01:11:40;;;;;;;5.97;4.30;;;;;;;26.03;53.48;100572.31;4879826;29;20053;-74
2023/08/15 01:14:15;;;;;;;6.85;4.20;;;;;;;26.01;53.70;100573.56;4879909;29;20051;-74
2023/08/15 01:16:48;;;;;;;7.25;4.25;;;;;;;25.99;53.48;100576.47;4879864;29;20147;-74
2023/08/15 01:19:30;;;;;;;7.28;4.10;;;;;;;25.96;53.54;100574.97;4879549;29;20052;-74
2023/08/15 01:22:01;;;;;;;5.68;4.40;;;;;;;25.96;54.07;100572.25;4879606;29;20562;-75
2023/08/15 01:24:32;;;;;;;8.00;4.63;;;;;;;25.95;53.51;100566.94;4879855;29;20049;-74
2023/08/15 01:27:00;;;;;;;7.85;4.10;;;;;;;25.93;53.91;100571.75;4879676;29;20057;-74
2023/08/15 01:29:29;;;;;;;4.80;3.78;;;;;;;25.92;53.98;100573.63;4879504;29;20053;-74
2023/08/15 01:32:05;;;;;;;6.97;4.50;;;;;;;25.91;54.02;100574.66;4879469;29;20049;-74
2023/08/15 01:34:37;;;;;;;6.22;4.10;;;;;;;25.89;53.74;100571.25;4879386;29;20148;-74
2023/08/15 01:37:10;;;;;;;6.45;3.97;;;;;;;25.89;53.77;100575.88;4879334;29;20504;-74
2023/08/15 01:39:41;;;;;;;7.07;4.18;;;;;;;25.87;54.26;100572.50;4879365;29;20061;-74
2023/08/15 01:42:11;;;;;;;5.93;4.18;;;;;;;25.86;54.02;100574.34;4879399;29;20055;-73
2023/08/15 01:44:39;;;;;;;5.97;4.05;;;;;;;25.86;54.13;100576.22;4879222;29;20467;-73
2023/08/15 01:47:08;;;;;;;6.60;4.40;;;;;;;25.85;54.03;100574.53;4879078;29;20045;-73
2023/08/15 01:49:36;;;;;;;6.00;4.32;;;;;;;25.83;53.92;100572.00;4878946;29;20063;-73
2023/08/15 01:52:04;;;;;;;6.53;4.35;;;;;;;25.80;54.05;100566.06;4879412;29;20055;-73
2023/08/15 01:54:33;;;;;;;6.07;4.35;;;;;;;25.80;54.42;100576.97;4879261;29;20057;-73
2023/08/15 01:57:03;;;;;;;6.95;4.10;;;;;;;25.79;54.04;100569.81;4879037;29;20049;-72
2023/08/15 01:59:31;;;;;;;5.85;4.20;;;;;;;25.77;54.24;100577.31;4878948;29;20092;-73
2023/08/15 02:01:59;;;;;;;6.25;4.10;;;;;;;25.78;54.19;100579.06;4878834;29;20053;-73
2023/08/15 02:04:27;;;;;;;6.18;4.28;;;;;;;25.76;54.56;100578.38;4878714;29;20061;-74
2023/08/15 02:06:56;;;;;;;6.22;4.20;;;;;;;25.75;54.56;100580.25;4878811;29;20140;-73
2023/08/15 02:09:24;;;;;;;6.85;4.25;;;;;;;25.74;54.70;100574.97;4878724;29;20064;-74
2023/08/15 02:11:52;;;;;;;6.82;4.28;;;;;;;25.72;54.91;100574.31;4877960;29;20061;-73
2023/08/15 02:14:22;;;;;;;5.80;4.13;;;;;;;25.71;54.36;100572.63;4878780;29;20056;-73
2023/08/15 02:16:50;;;;;;;6.03;4.63;;;;;;;25.69;54.66;100570.03;4878858;29;20053;-73
2023/08/15 02:19:18;;;;;;;8.65;3.90;;;;;;;25.69;54.53;100573.63;4878790;29;20084;-74
2023/08/15 02:21:46;;;;;;;6.25;4.03;;;;;;;25.66;54.27;100567.66;4878721;29;20084;-74
2023/08/15 02:24:14;;;;;;;6.78;4.10;;;;;;;25.65;54.67;100565.94;4878441;29;20051;-73
2023/08/15 02:26:42;;;;;;;5.78;4.03;;;;;;;25.63;54.78;100566.13;4878412;29;20495;-73
2023/08/15 02:29:13;;;;;;;5.70;4.13;;;;;;;25.64;54.83;100567.00;4878231;29;20049;-73
2023/08/15 02:31:48;;;;;;;5.05;3.90;;;;;;;25.60;54.69;100555.59;4878573;29;20147;-73
2023/08/15 02:34:18;;;;;;;5.10;3.92;;;;;;;25.61;54.75;100568.22;4878461;29;20052;-73
2023/08/15 02:36:47;;;;;;;6.82;4.00;;;;;;;25.60;55.11;100563.78;4878389;29;20064;-73
2023/08/15 02:39:16;;;;;;;5.93;4.00;;;;;;;25.60;55.18;100569.25;4878247;29;20053;-73
2023/08/15 02:41:45;;;;;;;5.78;4.28;;;;;;;25.58;55.23;100557.66;4878218;29;20081;-73
2023/08/15 02:44:13;;;;;;;8.43;4.32;;;;;;;25.57;55.27;100566.84;4878485;29;20132;-74
2023/08/15 02:46:41;;;;;;;5.22;4.00;;;;;;;25.57;55.22;100572.31;4878266;29;20045;-73
2023/08/15 02:49:11;;;;;;;5.90;4.38;;;;;;;25.54;55.03;100567.22;4878084;29;20053;-74
2023/08/15 02:51:39;;;;;;;5.95;4.22;;;;;;;25.54;55.22;100566.38;4878118;29;20052;-74
2023/08/15 02:54:07;;;;;;;6.13;4.18;;;;;;;25.53;55.26;100571.00;4878039;29;20076;-73
2023/08/15 02:56:35;;;;;;;6.78;4.30;;;;;;;25.51;55.15;100573.06;4878163;29;20117;-73
2023/08/15 02:59:04;;;;;;;5.57;4.07;;;;;;;25.50;55.25;100570.53;4878210;29;20064;-73
2023/08/15 03:01:33;;;;;;;5.35;4.05;;;;;;;25.47;55.36;100560.78;4878108;29;20049;-73
2023/08/15 03:04:02;;;;;;;8.10;4.30;;;;;;;25.47;55.40;100573.59;4877843;29;20061;-73
2023/08/15 03:06:31;;;;;;;6.13;4.22;;;;;;;25.45;55.25;100572.94;4878111;29;20049;-73
2023/08/15 03:08:59;;;;;;;5.65;4.13;;;;;;;25.44;55.25;100579.44;4877955;29;20057;-74
2023/08/15 03:11:29;;;;;;;6.05;4.03;;;;;;;25.42;55.58;100579.63;4878009;29;20049;-73
2023/08/15 03:13:58;;;;;;;7.30;4.30;;;;;;;25.43;55.64;100569.53;4877929;29;20055;-75
2023/08/15 03:16:27;;;;;;;6.22;4.35;;;;;;;25.41;55.78;100572.44;4877960;29;20404;-74
2023/08/15 03:18:55;;;;;;;7.43;4.47;;;;;;;25.39;55.63;100572.63;4877694;29;20049;-73
2023/08/15 03:21:24;;;;;;;8.10;4.47;;;;;;;25.38;55.40;100572.78;4878102;29;20475;-74
2023/08/15 03:23:53;;;;;;;5.40;4.13;;;;;;;25.37;55.54;100565.63;4881191;29;20053;-72
2023/08/15 03:26:21;;;;;;;6.03;3.90;;;;;;;25.37;55.65;100571.09;4884032;29;20148;-73
2023/08/15 03:28:52;;;;;;;5.53;4.10;;;;;;;25.35;55.76;100564.97;4883885;29;20063;-73
2023/08/15 03:31:21;;;;;;;6.07;4.55;;;;;;;25.35;55.68;100562.25;4883869;29;20415;-73
2023/08/15 03:33:49;;;;;;;7.28;4.70;;;;;;;25.33;55.67;100564.31;4883778;29;20116;-73
2023/08/15 03:36:17;;;;;;;7.97;4.50;;;;;;;25.33;56.05;100569.78;4884004;29;20057;-73
2023/08/15 03:38:46;;;;;;;6.97;4.40;;;;;;;25.31;55.95;100566.38;4883967;29;20052;-74
2023/08/15 03:41:15;;;;;;;6.57;4.35;;;;;;;25.31;55.88;100566.38;4883995;29;20049;-73
2023/08/15 03:43:44;;;;;;;7.18;4.53;;;;;;;25.30;55.77;100560.06;4883676;29;20049;-73
2023/08/15 03:46:12;;;;;;;6.38;4.30;;;;;;;25.29;56.06;100560.25;4883658;29;20527;-73
2023/08/15 03:48:41;;;;;;;7.35;4.80;;;;;;;25.27;56.20;100565.03;4883838;29;20053;-73
2023/08/15 03:51:09;;;;;;;6.88;4.43;;;;;;;25.26;55.86;100574.25;4883832;29;20061;-73
2023/08/15 03:53:43;;;;;;;6.85;4.47;;;;;;;25.24;56.31;100568.97;4883759;29;20048;-73
2023/08/15 03:56:11;;;;;;;8.48;4.40;;;;;;;25.23;55.98;100575.47;4883780;29;20594;-72
2023/08/15 03:58:40;;;;;;;7.35;4.47;;;;;;;25.22;56.15;100571.03;4883583;29;20144;-73
2023/08/15 04:01:08;;;;;;;7.30;4.35;;;;;;;25.22;56.05;100572.91;4883880;29;20476;-73
2023/08/15 04:03:37;;;;;;;6.10;4.15;;;;;;;25.21;56.08;100571.22;4883391;29;20596;-73
2023/08/15 04:06:06;;;;;;;7.65;4.80;;;;;;;25.20;56.20;100578.56;4883759;29;20053;-72
2023/08/15 04:08:34;;;;;;;5.85;4.45;;;;;;;25.18;56.28;100580.59;4883641;29;20416;-73
2023/08/15 04:11:03;;;;;;;6.07;4.40;;;;;;;25.17;56.15;100569.84;4883429;29;20561;-73
2023/08/15 04:13:31;;;;;;;5.85;4.35;;;;;;;25.16;56.32;100568.16;4883460;29;20052;-73
2023/08/15 04:16:00;;;;;;;6.40;4.32;;;;;;;25.16;56.73;100579.06;4883553;29;20056;-72
2023/08/15 04:18:28;;;;;;;6.82;4.75;;;;;;;25.15;56.48;100583.69;4883558;29;20053;-73
2023/08/15 04:20:57;;;;;;;6.43;4.40;;;;;;;25.14;56.66;100581.16;4883540;29;20135;-73
2023/08/15 04:23:25;;;;;;;7.78;4.43;;;;;;;25.14;56.61;100575.69;4883493;29;20049;-73
2023/08/15 04:25:53;;;;;;;6.13;4.50;;;;;;;25.11;56.58;100577.75;4882053;29;20483;-73
2023/08/15 04:28:21;;;;;;;6.15;4.35;;;;;;;25.08;56.56;100585.44;4883291;29;20502;-73
2023/08/15 04:30:50;;;;;;;6.43;4.38;;;;;;;25.11;56.57;100591.41;4883393;29;20063;-72
2023/08/15 04:33:19;;;;;;;8.40;4.22;;;;;;;25.10;56.83;100586.13;4883406;29;20140;-73
2023/08/15 04:35:47;;;;;;;7.65;4.68;;;;;;;25.10;56.63;100592.44;4880336;29;20045;-73
2023/08/15 04:38:15;;;;;;;7.40;4.40;;;;;;;25.10;56.84;100581.50;4880559;29;20048;-73
2023/08/15 04:40:43;;;;;;;6.55;4.50;;;;;;;25.09;56.88;100593.47;4880215;29;20049;-73
2023/08/15 04:43:12;;;;;;;7.28;4.70;;;;;;;25.09;56.76;100596.19;4880600;29;20045;-73
2023/08/15 04:45:43;;;;;;;7.93;5.00;;;;;;;25.09;57.14;100595.31;4880263;29;20105;-72
2023/08/15 04:48:12;;;;;;;8.15;4.40;;;;;;;25.06;56.92;100595.69;4880363;29;20144;-72
2023/08/15 04:50:42;;;;;;;6.55;4.47;;;;;;;25.07;57.04;100597.38;4880113;29;20060;-73
2023/08/15 04:53:10;;;;;;;7.47;4.25;;;;;;;25.06;57.17;100595.69;4879851;29;20136;-73
2023/08/15 04:55:38;;;;;;;8.18;4.72;;;;;;;25.05;57.20;100600.28;4880257;29;20045;-75
2023/08/15 04:58:09;;;;;;;6.13;4.43;;;;;;;25.05;57.35;100594.81;4880321;29;20395;-72
2023/08/15 05:00:38;;;;;;;7.57;4.50;;;;;;;25.05;57.25;100600.28;4880067;29;20053;-73
2023/08/15 05:03:06;;;;;;;8.32;4.70;;;;;;;25.05;57.11;100594.81;4879970;29;20442;-72
2023/08/15 05:05:34;;;;;;;8.15;4.68;;;;;;;25.05;57.35;100596.72;4879842;29;20139;-74
2023/08/15 05:08:06;;;;;;;7.35;4.53;;;;;;;25.04;57.62;100601.31;4879954;29;20495;-73
2023/08/15 05:10:34;;;;;;;6.82;4.50;;;;;;;25.04;57.48;100601.31;4879940;29;20187;-73
2023/08/15 05:13:02;;;;;;;7.07;4.72;;;;;;;25.05;57.74;100605.75;4880051;29;20109;-73
2023/08/15 05:15:30;;;;;;;7.53;4.80;;;;;;;25.05;57.70;100599.44;4879887;29;20045;-72
2023/08/15 05:17:58;;;;;;;6.25;4.40;;;;;;;25.06;57.27;100601.13;4879683;29;20088;-72
2023/08/15 05:20:27;;;;;;;6.32;4.50;;;;;;;25.03;57.70;100594.16;4879672;29;20045;-73
2023/08/15 05:22:55;;;;;;;7.00;5.05;;;;;;;25.04;58.01;100605.94;4879835;29;20049;-72
2023/08/15 05:25:24;;;;;;;8.52;4.93;;;;;;;25.05;58.04;100611.19;4879579;29;20084;-72
2023/08/15 05:27:52;;;;;;;8.02;5.13;;;;;;;25.03;57.95;100602.34;4879551;29;20080;-72
2023/08/15 05:30:20;;;;;;;6.32;4.20;;;;;;;25.03;57.51;100602.34;4879347;29;20049;-72
2023/08/15 05:32:49;;;;;;;6.45;4.57;;;;;;;25.01;57.90;100603.53;4879358;29;20051;-72
2023/08/15 05:35:17;;;;;;;8.18;4.70;;;;;;;25.04;57.64;100605.94;4879159;29;20377;-72
2023/08/15 05:37:45;;;;;;;7.88;4.82;;;;;;;25.04;57.88;100609.50;4879484;29;20116;-72
2023/08/15 05:40:13;;;;;;;8.18;4.60;;;;;;;25.04;57.81;100603.19;4879148;29;20056;-73
2023/08/15 05:42:43;;;;;;;6.38;4.80;;;;;;;25.06;57.89;100612.91;4879192;29;20049;-73
2023/08/15 05:45:11;;;;;;;10.20;5.25;;;;;;;25.04;58.26;100604.03;4879199;29;20056;-73
2023/08/15 05:47:39;;;;;;;8.32;4.63;;;;;;;25.06;58.04;100607.44;4878942;29;20049;-72
2023/08/15 05:50:08;;;;;;;8.18;4.57;;;;;;;25.06;58.06;100601.97;4879220;29;20051;-72
2023/08/15 05:52:36;;;;;;;9.43;4.95;;;;;;;25.07;58.37;100611.00;4879055;29;20490;-72
2023/08/15 05:55:05;;;;;;;6.75;4.90;;;;;;;25.07;58.09;100609.13;4879124;29;20085;-72
2023/08/15 05:57:33;;;;;;;7.03;4.90;;;;;;;25.07;58.19;100602.84;4879044;29;20127;-72
2023/08/15 06:00:05;;;;;;;9.95;4.90;;;;;;;25.06;58.47;100601.97;4878776;29;20049;-72
2023/08/15 06:02:36;;;;;;;5.95;4.68;;;;;;;25.08;58.46;100610.00;4879272;29;20061;-72
2023/08/15 06:05:05;;;;;;;8.95;5.30;;;;;;;25.08;58.23;100613.56;4878915;29;20513;-72
2023/08/15 06:07:36;;;;;;;8.90;4.88;;;;;;;25.08;58.51;100610.84;4878875;29;20055;-72
2023/08/15 06:10:05;;;;;;;8.90;4.95;;;;;;;25.10;58.45;100611.53;4878693;29;20056;-72
2023/08/15 06:12:33;;;;;;;7.28;4.82;;;;;;;25.10;58.37;100608.81;4878580;29;20053;-72
2023/08/15 06:15:03;;;;;;;7.47;5.10;;;;;;;25.10;58.41;100608.81;4878823;29;20372;-73
2023/08/15 06:17:31;;;;;;;7.80;5.28;;;;;;;25.11;58.52;100610.50;4878915;29;20049;-72
2023/08/15 06:19:59;;;;;;;8.93;5.15;;;;;;;25.09;58.55;100604.38;4878734;29;20095;-73
2023/08/15 06:22:27;;;;;;;8.32;5.07;;;;;;;25.11;58.64;100610.50;4878543;29;20053;-73
2023/08/15 06:24:55;;;;;;;7.05;4.85;;;;;;;25.11;58.63;100598.72;4878505;29;20463;-73
2023/08/15 06:27:24;;;;;;;7.60;4.90;;;;;;;25.15;58.45;100596.50;4878442;29;20415;-72
2023/08/15 06:29:52;;;;;;;6.78;5.25;;;;;;;25.16;58.70;100590.00;4878629;29;20056;-72
2023/08/15 06:32:29;;;;;;;8.63;4.97;;;;;;;25.16;58.74;100596.31;4878450;29;20056;-72
2023/08/15 06:34:57;;;;;;;7.55;5.25;;;;;;;25.17;58.69;100591.69;4878459;29;20052;-73
2023/08/15 06:37:25;;;;;;;7.82;4.93;;;;;;;25.19;58.40;100600.53;4878235;29;20499;-72
2023/08/15 06:39:53;;;;;;;7.43;4.88;;;;;;;25.20;58.64;100592.22;4878195;29;20063;-72
2023/08/15 06:42:22;;;;;;;7.10;4.60;;;;;;;25.22;58.78;100598.34;4878056;29;20049;-73
2023/08/15 06:44:50;;;;;;;6.38;4.88;;;;;;;25.22;58.79;100594.75;4878230;29;20053;-73
2023/08/15 06:47:19;;;;;;;7.93;4.55;;;;;;;25.21;58.65;100595.78;4878205;29;20045;-73
2023/08/15 06:49:49;;;;;;;7.38;4.93;;;;;;;25.21;58.58;100593.91;4878009;29;20052;-73
2023/08/15 06:52:17;;;;;;;5.75;4.60;;;;;;;25.23;58.62;100599.19;4878059;29;20494;-74
2023/08/15 06:54:46;;;;;;;9.10;5.35;;;;;;;25.24;58.55;100598.16;4878227;29;20388;-73
2023/08/15 06:57:14;;;;;;;7.85;4.80;;;;;;;25.25;58.84;100602.56;4878159;29;20061;-74
2023/08/15 06:59:42;;;;;;;8.73;4.88;;;;;;;25.26;58.63;100602.38;4877625;29;20057;-75
2023/08/15 07:02:10;;;;;;;7.90;4.78;;;;;;;25.28;58.60;100589.41;4878882;29;20049;-73
2023/08/15 07:04:40;;;;;;;7.10;4.60;;;;;;;25.29;58.71;100602.06;4877994;29;20143;-71
2023/08/15 07:07:12;;;;;;;6.95;4.88;;;;;;;25.29;58.51;100593.88;4877862;29;20053;-74
2023/08/15 07:09:41;;;;;;;7.35;4.68;;;;;;;25.30;58.86;100589.25;4877787;29;20105;-73
2023/08/15 07:12:09;;;;;;;7.00;4.80;;;;;;;25.31;58.64;100585.50;4877733;29;20441;-73
2023/08/15 07:14:38;;;;;;;6.78;5.18;;;;;;;25.34;58.52;100593.31;4877801;29;20080;-73
2023/08/15 07:17:06;;;;;;;7.13;4.60;;;;;;;25.34;58.64;100593.31;4877595;29;20460;-72
2023/08/15 07:19:34;;;;;;;9.38;4.63;;;;;;;25.35;58.77;100584.94;4877688;29;20483;-74
2023/08/15 07:22:03;;;;;;;8.02;4.97;;;;;;;25.37;58.79;100590.22;4877936;29;20056;-72
2023/08/15 07:24:32;;;;;;;7.88;4.70;;;;;;;25.37;58.41;100582.03;4877603;29;20140;-74
2023/08/15 07:27:01;;;;;;;9.02;4.57;;;;;;;25.39;58.58;100585.44;4877866;29;20045;-73
2023/08/15 07:29:29;;;;;;;6.72;4.60;;;;;;;25.40;58.53;100598.06;4877523;29;20057;-70
2023/08/15 07:31:57;;;;;;;6.60;4.57;;;;;;;25.40;58.95;100587.13;4877485;29;20120;-75
2023/08/15 07:34:25;;;;;;;7.70;4.93;;;;;;;25.43;58.69;100592.22;4877606;29;20494;-75
2023/08/15 07:36:54;;;;;;;6.45;4.45;;;;;;;25.43;58.72;100592.22;4877615;29;20539;-78
2023/08/15 07:39:22;;;;;;;7.72;4.72;;;;;;;25.43;58.76;100592.22;4877739;29;20078;-72
2023/08/15 07:41:51;;;;;;;5.95;4.63;;;;;;;25.45;58.94;100590.16;4877725;29;20052;-76
2023/08/15 07:44:19;;;;;;;9.10;4.50;;;;;;;25.48;58.86;100589.81;4877680;29;20049;-73
2023/08/15 07:46:48;;;;;;;5.90;4.60;;;;;;;25.50;58.97;100593.22;4877363;29;20361;-70
2023/08/15 07:49:16;;;;;;;6.53;4.60;;;;;;;25.49;58.86;100588.78;4877780;29;20045;-73
2023/08/15 07:51:44;;;;;;;6.93;4.40;;;;;;;25.51;58.91;100589.44;4877471;29;20053;-74
2023/08/15 07:54:12;;;;;;;6.35;4.28;;;;;;;25.52;58.84;100582.97;4877381;29;20474;-72
2023/08/15 07:56:40;;;;;;;7.22;4.70;;;;;;;25.53;58.83;100579.19;4877288;29;20077;-73
2023/08/15 07:59:10;;;;;;;6.18;4.80;;;;;;;25.54;58.41;100578.16;4877704;29;20487;-72
2023/08/15 08:01:38;;;;;;;7.00;4.30;;;;;;;25.55;58.48;100582.59;4877388;29;20052;-72
2023/08/15 08:04:07;;;;;;;6.75;4.40;;;;;;;25.56;58.53;100578.81;4877279;29;20087;-72
2023/08/15 08:06:35;;;;;;;6.55;4.35;;;;;;;25.56;58.55;100576.09;4877791;29;20084;-71
2023/08/15 08:09:08;;;;;;;8.18;4.57;;;;;;;25.60;58.46;100582.06;4877410;29;20085;-72
2023/08/15 08:11:37;;;;;;;7.45;4.50;;;;;;;25.60;58.62;100582.06;4880054;29;20053;-72
2023/08/15 08:14:05;;;;;;;7.80;4.65;;;;;;;25.59;58.90;100578.47;4880739;29;20068;-74
2023/08/15 08:16:35;;;;;;;6.15;4.28;;;;;;;25.61;58.58;100573.69;4881140;29;20495;-75
2023/08/15 08:19:05;;;;;;;6.28;4.30;;;;;;;25.63;58.46;100565.28;4880589;29;20064;-71
2023/08/15 08:21:36;;;;;;;7.03;4.38;;;;;;;25.64;58.51;100573.31;4880587;29;20140;-72
2023/08/15 08:24:05;;;;;;;6.30;4.47;;;;;;;25.64;58.86;100570.56;4880868;29;20424;-72
2023/08/15 08:26:36;;;;;;;7.57;4.63;;;;;;;25.67;58.81;100575.69;4880659;29;20055;-74
2023/08/15 08:29:05;;;;;;;8.00;4.10;;;;;;;25.68;58.37;100571.91;4880876;29;20136;-72
2023/08/15 08:31:39;;;;;;;5.55;4.60;;;;;;;25.71;58.21;100569.88;4880586;29;20547;-73
2023/08/15 08:34:13;;;;;;;5.55;4.45;;;;;;;25.72;58.18;100571.56;4881443;29;20093;-72
2023/08/15 08:36:42;;;;;;;7.18;4.30;;;;;;;25.73;57.98;100570.53;4881250;29;20057;-74
2023/08/15 08:39:11;;;;;;;6.40;3.95;;;;;;;25.75;57.81;100574.78;4881019;29;20048;-72
2023/08/15 08:41:58;;;;;;;7.00;4.13;;;;;;;25.77;57.79;100574.59;4881042;29;20050;-71
2023/08/15 08:44:27;;;;;;;6.35;3.80;;;;;;;25.77;57.72;100571.88;4880897;29;20498;-71
2023/08/15 08:46:59;;;;;;;7.63;4.05;;;;;;;25.79;57.67;100575.28;4880101;29;20513;-71
2023/08/15 08:49:28;;;;;;;8.75;3.70;;;;;;;25.80;57.68;100577.84;4878824;29;20415;-71
2023/08/15 08:51:57;;;;;;;6.90;4.13;;;;;;;25.81;57.55;100578.69;4880426;29;20045;-71
2023/08/15 08:54:25;;;;;;;6.05;3.80;;;;;;;25.82;57.72;100574.91;4880341;29;20048;-71
2023/08/15 08:57:15;;;;;;;5.75;3.67;;;;;;;25.84;57.56;100572.84;4880189;29;20117;-72
2023/08/15 08:59:44;;;;;;;5.93;3.90;;;;;;;25.86;57.74;100565.28;4880016;29;20055;-72
2023/08/15 09:02:22;;;;;;;6.03;3.80;;;;;;;25.86;57.34;100570.75;4879847;29;20546;-71
2023/08/15 09:04:50;;;;;;;5.47;3.78;;;;;;;25.86;57.37;100563.41;4879760;29;20060;-72
2023/08/15 09:07:18;;;;;;;7.53;4.15;;;;;;;25.89;57.56;100559.50;4879855;29;20144;-71
2023/08/15 09:09:48;;;;;;;5.65;3.95;;;;;;;25.89;57.47;100562.22;4879894;29;20104;-71
2023/08/15 09:12:33;;;;;;;9.55;3.88;;;;;;;25.90;57.21;100566.66;4879638;29;20041;-71
2023/08/15 09:15:01;;;;;;;7.18;3.55;;;;;;;25.93;56.86;100561.66;4879977;29;20049;-71
2023/08/15 09:17:31;;;;;;;7.30;3.80;;;;;;;25.94;57.15;100565.22;4879840;29;20472;-72
2023/08/15 09:20:11;;;;;;;5.43;3.67;;;;;;;25.95;56.80;100550.53;4879730;29;20052;-72
2023/08/15 09:22:41;;;;;;;5.85;3.97;;;;;;;25.95;57.16;100545.06;4879123;29;20586;-72
2023/08/15 09:25:10;;;;;;;6.05;3.60;;;;;;;25.98;57.23;100552.91;4879517;29;20407;-72
2023/08/15 09:27:39;;;;;;;6.20;3.90;;;;;;;26.00;56.84;100556.31;4879544;29;20144;-71
2023/08/15 09:30:10;;;;;;;5.60;3.50;;;;;;;26.02;56.77;100548.75;4879672;29;20049;-71
2023/08/15 09:32:45;;;;;;;6.03;3.95;;;;;;;26.05;56.86;100559.31;4879304;29;20426;-71
2023/08/15 09:35:14;;;;;;;5.30;3.70;;;;;;;26.08;56.45;100553.50;4879264;29;20152;-72
2023/08/15 09:37:44;;;;;;;5.55;3.80;;;;;;;26.09;56.78;100549.72;4879597;29;20057;-71
2023/08/15 09:40:17;;;;;;;6.60;3.65;;;;;;;26.11;56.43;100550.38;4879411;29;20136;-72
2023/08/15 09:42:46;;;;;;;6.75;4.00;;;;;;;26.13;56.20;100552.94;4879273;29;20057;-72
2023/08/15 09:45:15;;;;;;;5.65;3.40;;;;;;;26.15;56.19;100553.59;4879324;29;20049;-72
2023/08/15 09:47:45;;;;;;;8.00;3.78;;;;;;;26.16;56.15;100558.91;4879135;29;20113;-72
2023/08/15 09:50:15;;;;;;;5.18;3.75;;;;;;;26.19;56.37;100554.94;4878816;29;20128;-71
2023/08/15 09:52:45;;;;;;;5.60;3.40;;;;;;;26.20;56.30;100557.47;4878956;29;20501;-72
2023/08/15 09:55:18;;;;;;;5.18;3.80;;;;;;;26.21;56.34;100550.97;4879264;29;20483;-72
2023/08/15 09:57:47;;;;;;;6.03;3.80;;;;;;;26.25;55.94;100554.19;4879067;29;20081;-72
2023/08/15 10:00:16;;;;;;;5.13;3.70;;;;;;;26.27;55.82;100552.13;4878961;29;20053;-72
2023/08/15 10:02:52;;;;;;;7.10;3.80;;;;;;;26.29;56.04;100551.94;4878706;29;20162;-72
2023/08/15 10:05:22;;;;;;;6.63;4.03;;;;;;;26.30;55.76;100549.00;4879121;29;20052;-73
2023/08/15 10:07:51;;;;;;;5.45;3.90;;;;;;;26.34;55.64;100552.19;4878855;29;20159;-73
2023/08/15 10:10:20;;;;;;;5.05;3.70;;;;;;;26.36;55.55;100550.16;4878541;29;20391;-72
2023/08/15 10:12:51;;;;;;;5.70;3.90;;;;;;;26.40;55.40;100554.22;4877487;29;20085;-72
2023/08/15 10:15:21;;;;;;;6.15;3.90;;;;;;;26.47;54.30;100552.44;4878671;29;20141;-70
2023/08/15 10:17:51;;;;;;;5.13;3.60;;;;;;;26.52;54.32;100552.72;4877541;29;20052;-72
2023/08/15 10:20:21;;;;;;;5.78;3.90;;;;;;;26.56;54.55;100554.06;4878573;29;20076;-72
2023/08/15 10:22:51;;;;;;;6.75;3.63;;;;;;;26.59;54.18;100548.19;4878731;29;20077;-73
2023/08/15 10:25:32;;;;;;;7.00;3.80;;;;;;;26.61;54.21;100553.47;4878603;29;20077;-71
2023/08/15 10:28:00;;;;;;;5.03;3.70;;;;;;;26.64;54.25;100543.00;4878693;29;20447;-73
2023/08/15 10:30:29;;;;;;;7.93;3.80;;;;;;;26.68;54.46;100549.78;4878545;29;20052;-73
2023/08/15 10:33:02;;;;;;;5.53;3.80;;;;;;;26.70;53.98;100555.91;4877464;29;20487;-73
2023/08/15 10:35:33;;;;;;;6.35;3.60;;;;;;;26.74;54.01;100542.72;4878452;29;20416;-73
2023/08/15 10:38:13;;;;;;;5.10;3.53;;;;;;;26.77;54.29;100545.06;4878161;29;20057;-72
2023/08/15 10:40:44;;;;;;;5.50;3.65;;;;;;;26.79;53.87;100535.63;4878499;29;20048;-72
2023/08/15 10:43:13;;;;;;;6.60;3.78;;;;;;;26.84;53.81;100536.97;4878414;29;20049;-72
2023/08/15 10:45:43;;;;;;;7.28;3.65;;;;;;;26.86;54.23;100529.41;4878143;29;20470;-72
2023/08/15 10:48:36;;;;;;;5.10;3.70;;;;;;;26.91;54.08;100530.50;4878142;29;20053;-72
2023/08/15 10:51:22;;;;;;;5.65;3.60;;;;;;;26.94;54.09;100532.88;4878116;29;20053;-72
2023/08/15 10:53:51;;;;;;;6.45;3.75;;;;;;;26.98;54.00;100525.97;4878039;29;20060;-72
2023/08/15 10:56:21;;;;;;;5.28;3.70;;;;;;;27.03;53.83;100525.44;4878163;29;20057;-72
2023/08/15 10:58:53;;;;;;;8.77;3.30;;;;;;;27.07;52.95;100532.22;4877869;29;20074;-72
2023/08/15 11:01:25;;;;;;;5.40;3.38;;;;;;;27.10;53.27;100529.06;4877944;29;20059;-72
2023/08/15 11:03:57;;;;;;;5.32;3.50;;;;;;;27.14;52.82;100519.44;4877977;29;20411;-71
2023/08/15 11:06:25;;;;;;;4.65;3.65;;;;;;;27.19;52.75;100524.34;4878032;29;20166;-73
2023/08/15 11:08:55;;;;;;;5.20;3.58;;;;;;;27.22;53.11;100518.50;4877767;29;20089;-73
2023/08/15 11:11:24;;;;;;;4.50;3.40;;;;;;;27.24;53.04;100511.78;4877827;29;20464;-73
2023/08/15 11:13:55;;;;;;;5.25;3.80;;;;;;;27.29;52.71;100520.22;4877576;29;20495;-72
2023/08/15 11:16:24;;;;;;;4.80;3.75;;;;;;;27.32;53.10;100508.91;4877980;29;20096;-73
2023/08/15 11:18:56;;;;;;;6.82;3.50;;;;;;;27.41;52.49;100512.38;4877849;29;20053;-73
2023/08/15 11:21:30;;;;;;;5.00;3.88;;;;;;;27.45;52.48;100507.34;4877909;29;20045;-73
2023/08/15 11:23:59;;;;;;;5.10;3.65;;;;;;;27.49;52.31;100508.63;4877799;29;20064;-72
2023/08/15 11:26:29;;;;;;;6.60;3.80;;;;;;;27.54;52.08;100506.16;4877965;29;20052;-72
2023/08/15 11:28:59;;;;;;;6.43;3.80;;;;;;;27.60;51.92;100502.63;4877992;29;20077;-72
2023/08/15 11:31:28;;;;;;;4.70;3.50;;;;;;;27.67;51.76;100506.31;4877874;29;20435;-72
2023/08/15 11:33:59;;;;;;;5.13;3.47;;;;;;;27.72;51.23;100501.09;4877575;29;20052;-73
2023/08/15 11:36:27;;;;;;;5.70;4.00;;;;;;;27.76;51.38;100502.38;4877687;29;20072;-72